Station Historical Data
Daily Summary for September 16, 2019 Units:  Both    English   Metric
« Previous Day
Next Day »
Daily Weekly Monthly Yearly Custom
  High: Low: Average:
Temperature: 77.6 °F /  25.3 °C 61.5 °F /  16.4 °C 68.4 °F /  20.2 °C
Dew Point: 70.5 °F /  21.4 °C 60.7 °F /  15.9 °C 65.2 °F /  18.4 °C
Humidity: 100% 72% 90%
Wind Speed: 4mph /  6.4km/h - 0mph /  0km/h
Wind Gust: 12mph /  19.3km/h - -
Wind- - NW
Pressure: 30.08 in /  1018.5 hPa 29.98 in /  1015.1 hPa -
Precipitation: 0 in /  0 mm    
Historical Graphs
 
 
Tabular Data for September 16, 2019
Time Temperature Dew Point Pressure Wind Wind Speed Wind Gust Humidity Rainfall Rate (Hourly) solar Conditions
00:00 62.8 °F /  17.1 °C 61.6 °F /  16.4 °C 30.07in /  1018.2hPa Calm     96% 0in /  0mm WeatherDisplay:10.37 W/m2 RA
00:05 62.8 °F /  17.1 °C 61.6 °F /  16.4 °C 30.07in /  1018.2hPa Calm     96% 0in /  0mm WeatherDisplay:10.37 W/m2 CLR
00:10 62.9 °F /  17.2 °C 61.7 °F /  16.5 °C 30.07in /  1018.2hPa Calm     96% 0in /  0mm WeatherDisplay:10.37 W/m2 CLR
00:15 62.9 °F /  17.2 °C 61.7 °F /  16.5 °C 30.07in /  1018.2hPa Calm     96% 0in /  0mm WeatherDisplay:10.37 W/m2 CLR
00:20 62.9 °F /  17.2 °C 61.7 °F /  16.5 °C 30.07in /  1018.2hPa Calm     96% 0in /  0mm WeatherDisplay:10.37 W/m2 CLR
00:25 63 °F /  17.2 °C 61.8 °F /  16.6 °C 30.07in /  1018.2hPa Calm     96% 0in /  0mm WeatherDisplay:10.37 W/m2 CLR
00:30 63 °F /  17.2 °C 61.8 °F /  16.6 °C 30.07in /  1018.2hPa Calm     96% 0in /  0mm WeatherDisplay:10.37 W/m2 CLR
00:35 63.1 °F /  17.3 °C 61.9 °F /  16.6 °C 30.07in /  1018.2hPa Calm     96% 0in /  0mm WeatherDisplay:10.37 W/m2 CLR
00:40 63.1 °F /  17.3 °C 61.9 °F /  16.6 °C 30.08in /  1018.5hPa Calm     96% 0in /  0mm WeatherDisplay:10.37 W/m2 CLR
00:45 63.1 °F /  17.3 °C 61.9 °F /  16.6 °C 30.08in /  1018.5hPa Calm     96% 0in /  0mm WeatherDisplay:10.37 W/m2 CLR
00:50 63 °F /  17.2 °C 61.8 °F /  16.6 °C 30.08in /  1018.5hPa Calm     96% 0in /  0mm WeatherDisplay:10.37 W/m2 CLR
00:55 62.9 °F /  17.2 °C 61.7 °F /  16.5 °C 30.08in /  1018.5hPa Calm     96% 0in /  0mm WeatherDisplay:10.37 W/m2 CLR
01:00 62.8 °F /  17.1 °C 61.6 °F /  16.4 °C 30.08in /  1018.5hPa Calm     96% 0in /  0mm WeatherDisplay:10.37 W/m2 CLR
01:05 62.7 °F /  17.1 °C 61.5 °F /  16.4 °C 30.08in /  1018.5hPa Calm     96% 0in /  0mm WeatherDisplay:10.37 W/m2 CLR
01:10 62.6 °F /  17 °C 61.7 °F /  16.5 °C 30.08in /  1018.5hPa Calm     97% 0in /  0mm WeatherDisplay:10.37 W/m2 CLR
01:15 62.5 °F /  16.9 °C 61.6 °F /  16.4 °C 30.08in /  1018.5hPa Calm     97% 0in /  0mm WeatherDisplay:10.37 W/m2 CLR
01:20 62.3 °F /  16.8 °C 61.1 °F /  16.2 °C 30.07in /  1018.2hPa Calm     96% 0in /  0mm WeatherDisplay:10.37 W/m2 CLR
01:25 62.2 °F /  16.8 °C 61.3 °F /  16.3 °C 30.08in /  1018.5hPa Calm     97% 0in /  0mm WeatherDisplay:10.37 W/m2 CLR
01:30 62.1 °F /  16.7 °C 61.2 °F /  16.2 °C 30.07in /  1018.2hPa Calm     97% 0in /  0mm WeatherDisplay:10.37 W/m2 CLR
01:35 62 °F /  16.7 °C 61.1 °F /  16.2 °C 30.07in /  1018.2hPa Calm     97% 0in /  0mm WeatherDisplay:10.37 W/m2 CLR
01:40 61.9 °F /  16.6 °C 61 °F /  16.1 °C 30.07in /  1018.2hPa Calm     97% 0in /  0mm WeatherDisplay:10.37 W/m2 CLR
01:45 61.8 °F /  16.6 °C 60.9 °F /  16.1 °C 30.07in /  1018.2hPa Calm     97% 0in /  0mm WeatherDisplay:10.37 W/m2 CLR
01:50 61.6 °F /  16.4 °C 60.7 °F /  15.9 °C 30.07in /  1018.2hPa Calm     97% 0in /  0mm WeatherDisplay:10.37 W/m2 CLR
01:55 61.6 °F /  16.4 °C 60.7 °F /  15.9 °C 30.07in /  1018.2hPa Calm     97% 0in /  0mm WeatherDisplay:10.37 W/m2 CLR
02:00 61.5 °F /  16.4 °C 60.9 °F /  16.1 °C 30.07in /  1018.2hPa Calm     98% 0in /  0mm WeatherDisplay:10.37 W/m2 CLR
02:05 61.5 °F /  16.4 °C 60.9 °F /  16.1 °C 30.07in /  1018.2hPa Calm     98% 0in /  0mm WeatherDisplay:10.37 W/m2 CLR
02:10 61.6 °F /  16.4 °C 61 °F /  16.1 °C 30.07in /  1018.2hPa Calm     98% 0in /  0mm WeatherDisplay:10.37 W/m2 CLR
02:15 61.6 °F /  16.4 °C 61 °F /  16.1 °C 30.07in /  1018.2hPa Calm     98% 0in /  0mm WeatherDisplay:10.37 W/m2 CLR
02:20 61.7 °F /  16.5 °C 61.1 °F /  16.2 °C 30.07in /  1018.2hPa Calm     98% 0in /  0mm WeatherDisplay:10.37 W/m2 CLR
02:25 61.7 °F /  16.5 °C 61.1 °F /  16.2 °C 30.07in /  1018.2hPa Calm     98% 0in /  0mm WeatherDisplay:10.37 W/m2 CLR
02:30 61.8 °F /  16.6 °C 61.2 °F /  16.2 °C 30.06in /  1017.8hPa Calm     98% 0in /  0mm WeatherDisplay:10.37 W/m2 CLR
02:35 61.9 °F /  16.6 °C 61.6 °F /  16.4 °C 30.06in /  1017.8hPa Calm     99% 0in /  0mm WeatherDisplay:10.37 W/m2 CLR
02:40 62 °F /  16.7 °C 61.7 °F /  16.5 °C 30.06in /  1017.8hPa Calm     99% 0in /  0mm WeatherDisplay:10.37 W/m2 CLR
02:45 62.1 °F /  16.7 °C 61.8 °F /  16.6 °C 30.06in /  1017.8hPa Calm     99% 0in /  0mm WeatherDisplay:10.37 W/m2 CLR
02:50 62.3 °F /  16.8 °C 62 °F /  16.7 °C 30.06in /  1017.8hPa Calm     99% 0in /  0mm WeatherDisplay:10.37 W/m2 CLR
02:55 62.3 °F /  16.8 °C 62 °F /  16.7 °C 30.06in /  1017.8hPa Calm     99% 0in /  0mm WeatherDisplay:10.37 W/m2 CLR
03:00 62.4 °F /  16.9 °C 62.1 °F /  16.7 °C 30.06in /  1017.8hPa Calm     99% 0in /  0mm WeatherDisplay:10.37 W/m2 CLR
03:05 62.4 °F /  16.9 °C 62.1 °F /  16.7 °C 30.06in /  1017.8hPa Calm     99% 0in /  0mm WeatherDisplay:10.37 W/m2 CLR
03:10 62.5 °F /  16.9 °C 62.2 °F /  16.8 °C 30.06in /  1017.8hPa Calm     99% 0in /  0mm WeatherDisplay:10.37 W/m2 CLR
03:15 62.5 °F /  16.9 °C 62.2 °F /  16.8 °C 30.06in /  1017.8hPa Calm     99% 0in /  0mm WeatherDisplay:10.37 W/m2 CLR
03:20 62.5 °F /  16.9 °C 62.2 °F /  16.8 °C 30.06in /  1017.8hPa Calm     99% 0in /  0mm WeatherDisplay:10.37 W/m2 CLR
03:25 62.6 °F /  17 °C 62.3 °F /  16.8 °C 30.06in /  1017.8hPa Calm     99% 0in /  0mm WeatherDisplay:10.37 W/m2 CLR
03:30 62.6 °F /  17 °C 62.3 °F /  16.8 °C 30.06in /  1017.8hPa Calm     99% 0in /  0mm WeatherDisplay:10.37 W/m2 CLR
03:35 62.7 °F /  17.1 °C 62.4 °F /  16.9 °C 30.06in /  1017.8hPa Calm     99% 0in /  0mm WeatherDisplay:10.37 W/m2 CLR
03:40 62.7 °F /  17.1 °C 62.4 °F /  16.9 °C 30.06in /  1017.8hPa Calm     99% 0in /  0mm WeatherDisplay:10.37 W/m2 CLR
03:45 62.7 °F /  17.1 °C 62.4 °F /  16.9 °C 30.06in /  1017.8hPa Calm     99% 0in /  0mm WeatherDisplay:10.37 W/m2 CLR
03:50 62.8 °F /  17.1 °C 62.5 °F /  16.9 °C 30.07in /  1018.2hPa Calm     99% 0in /  0mm WeatherDisplay:10.37 W/m2 CLR
03:55 62.8 °F /  17.1 °C 62.5 °F /  16.9 °C 30.07in /  1018.2hPa Calm     99% 0in /  0mm WeatherDisplay:10.37 W/m2 CLR
04:00 62.8 °F /  17.1 °C 62.5 °F /  16.9 °C 30.07in /  1018.2hPa Calm     99% 0in /  0mm WeatherDisplay:10.37 W/m2 CLR
04:05 62.9 °F /  17.2 °C 62.6 °F /  17 °C 30.07in /  1018.2hPa Calm     99% 0in /  0mm WeatherDisplay:10.37 W/m2 CLR
04:10 62.9 °F /  17.2 °C 62.6 °F /  17 °C 30.07in /  1018.2hPa Calm     99% 0in /  0mm WeatherDisplay:10.37 W/m2 CLR
04:15 62.9 °F /  17.2 °C 62.6 °F /  17 °C 30.06in /  1017.8hPa Calm     99% 0in /  0mm WeatherDisplay:10.37 W/m2 CLR
04:20 62.9 °F /  17.2 °C 62.6 °F /  17 °C 30.06in /  1017.8hPa Calm     99% 0in /  0mm WeatherDisplay:10.37 W/m2 CLR
04:25 62.9 °F /  17.2 °C 62.6 °F /  17 °C 30.06in /  1017.8hPa Calm     99% 0in /  0mm WeatherDisplay:10.37 W/m2 CLR
04:30 63 °F /  17.2 °C 62.7 °F /  17.1 °C 30.06in /  1017.8hPa Calm     99% 0in /  0mm WeatherDisplay:10.37 W/m2 CLR
04:35 63 °F /  17.2 °C 62.7 °F /  17.1 °C 30.06in /  1017.8hPa Calm     99% 0in /  0mm WeatherDisplay:10.37 W/m2 CLR
04:40 63 °F /  17.2 °C 62.7 °F /  17.1 °C 30.06in /  1017.8hPa Calm     99% 0in /  0mm WeatherDisplay:10.37 W/m2 CLR
04:45 63 °F /  17.2 °C 62.7 °F /  17.1 °C 30.06in /  1017.8hPa Calm     99% 0in /  0mm WeatherDisplay:10.37 W/m2 CLR
04:50 62.9 °F /  17.2 °C 62.6 °F /  17 °C 30.06in /  1017.8hPa Calm     99% 0in /  0mm WeatherDisplay:10.37 W/m2 CLR
04:55 62.9 °F /  17.2 °C 62.6 °F /  17 °C 30.06in /  1017.8hPa Calm     99% 0in /  0mm WeatherDisplay:10.37 W/m2 CLR
05:00 62.9 °F /  17.2 °C 62.6 °F /  17 °C 30.06in /  1017.8hPa Calm     99% 0in /  0mm WeatherDisplay:10.37 W/m2 CLR
05:05 62.9 °F /  17.2 °C 62.6 °F /  17 °C 30.06in /  1017.8hPa Calm     99% 0in /  0mm WeatherDisplay:10.37 W/m2 CLR
05:10 62.9 °F /  17.2 °C 62.6 °F /  17 °C 30.06in /  1017.8hPa Calm     99% 0in /  0mm WeatherDisplay:10.37 W/m2 CLR
05:15 63 °F /  17.2 °C 62.7 °F /  17.1 °C 30.06in /  1017.8hPa Calm     99% 0in /  0mm WeatherDisplay:10.37 W/m2 CLR
05:20 62.9 °F /  17.2 °C 62.6 °F /  17 °C 30.06in /  1017.8hPa Calm     99% 0in /  0mm WeatherDisplay:10.37 W/m2 CLR
05:25 63 °F /  17.2 °C 62.7 °F /  17.1 °C 30.06in /  1017.8hPa Calm     99% 0in /  0mm WeatherDisplay:10.37 W/m2 CLR
05:30 63 °F /  17.2 °C 62.7 °F /  17.1 °C 30.07in /  1018.2hPa Calm     99% 0in /  0mm WeatherDisplay:10.37 W/m2 CLR
05:35 63.1 °F /  17.3 °C 62.8 °F /  17.1 °C 30.07in /  1018.2hPa Calm     99% 0in /  0mm WeatherDisplay:10.37 W/m2 CLR
05:40 63.1 °F /  17.3 °C 62.8 °F /  17.1 °C 30.07in /  1018.2hPa Calm     99% 0in /  0mm WeatherDisplay:10.37 W/m2 CLR
05:45 63.1 °F /  17.3 °C 62.8 °F /  17.1 °C 30.06in /  1017.8hPa Calm     99% 0in /  0mm WeatherDisplay:10.37 W/m2 CLR
05:50 63.1 °F /  17.3 °C 62.8 °F /  17.1 °C 30.06in /  1017.8hPa Calm     99% 0in /  0mm WeatherDisplay:10.37 W/m2 CLR
05:55 63.1 °F /  17.3 °C 62.8 °F /  17.1 °C 30.06in /  1017.8hPa Calm     99% 0in /  0mm WeatherDisplay:10.37 W/m2 CLR
06:00 63.1 °F /  17.3 °C 62.8 °F /  17.1 °C 30.06in /  1017.8hPa Calm     99% 0in /  0mm WeatherDisplay:10.37 W/m2 CLR
06:05 63 °F /  17.2 °C 62.7 °F /  17.1 °C 30.06in /  1017.8hPa Calm     99% 0in /  0mm WeatherDisplay:10.37 W/m2 CLR
06:10 62.9 °F /  17.2 °C 62.6 °F /  17 °C 30.06in /  1017.8hPa Calm     99% 0in /  0mm WeatherDisplay:10.37 W/m2 CLR
06:15 62.9 °F /  17.2 °C 62.6 °F /  17 °C 30.07in /  1018.2hPa Calm     99% 0in /  0mm WeatherDisplay:10.37 W/m2 CLR
06:20 62.9 °F /  17.2 °C 62.6 °F /  17 °C 30.06in /  1017.8hPa Calm     99% 0in /  0mm WeatherDisplay:10.37 W/m2 CLR
06:25 62.9 °F /  17.2 °C 62.6 °F /  17 °C 30.07in /  1018.2hPa Calm     99% 0in /  0mm WeatherDisplay:10.37 W/m2 CLR
06:30 62.9 °F /  17.2 °C 62.6 °F /  17 °C 30.07in /  1018.2hPa Calm     99% 0in /  0mm WeatherDisplay:10.37 W/m2 CLR
06:35 62.9 °F /  17.2 °C 62.6 °F /  17 °C 30.07in /  1018.2hPa Calm     99% 0in /  0mm WeatherDisplay:10.37 W/m2 CLR
06:40 63 °F /  17.2 °C 62.7 °F /  17.1 °C 30.07in /  1018.2hPa Calm     99% 0in /  0mm WeatherDisplay:10.37 W/m2 CLR
06:45 63 °F /  17.2 °C 63 °F /  17.2 °C 30.06in /  1017.8hPa Calm     100% 0in /  0mm WeatherDisplay:10.37 W/m2 CLR
06:50 63 °F /  17.2 °C 63 °F /  17.2 °C 30.06in /  1017.8hPa Calm     100% 0in /  0mm WeatherDisplay:10.37 W/m2 CLR
06:55 63 °F /  17.2 °C 62.7 °F /  17.1 °C 30.06in /  1017.8hPa Calm     99% 0in /  0mm WeatherDisplay:10.37 W/m2 CLR
07:00 63 °F /  17.2 °C 63 °F /  17.2 °C 30.06in /  1017.8hPa Calm     100% 0in /  0mm WeatherDisplay:10.37 W/m2 CLR
07:05 63.1 °F /  17.3 °C 62.8 °F /  17.1 °C 30.06in /  1017.8hPa Calm     99% 0in /  0mm WeatherDisplay:10.37 W/m2 CLR
07:10 63.2 °F /  17.3 °C 63.2 °F /  17.3 °C 30.06in /  1017.8hPa Calm     100% 0in /  0mm WeatherDisplay:10.37 W/m2 CLR
07:15 63.3 °F /  17.4 °C 63.3 °F /  17.4 °C 30.06in /  1017.8hPa Calm     100% 0in /  0mm WeatherDisplay:10.37 W/m2 CLR
07:20 63.2 °F /  17.3 °C 63.2 °F /  17.3 °C 30.07in /  1018.2hPa Calm     100% 0in /  0mm WeatherDisplay:10.37 W/m2 CLR
07:25 63.2 °F /  17.3 °C 63.2 °F /  17.3 °C 30.06in /  1017.8hPa Calm     100% 0in /  0mm WeatherDisplay:10.37 W/m2 CLR
07:30 63.3 °F /  17.4 °C 63.3 °F /  17.4 °C 30.06in /  1017.8hPa Calm     100% 0in /  0mm WeatherDisplay:10.37 W/m2 CLR
07:35 63.4 °F /  17.4 °C 63.4 °F /  17.4 °C 30.07in /  1018.2hPa Calm     100% 0in /  0mm WeatherDisplay:10.37 W/m2 CLR
07:40 63.6 °F /  17.6 °C 63.6 °F /  17.6 °C 30.07in /  1018.2hPa Calm     100% 0in /  0mm WeatherDisplay:10.37 W/m2 CLR
07:45 63.7 °F /  17.6 °C 63.7 °F /  17.6 °C 30.06in /  1017.8hPa Calm     100% 0in /  0mm WeatherDisplay:10.37 W/m2 CLR
07:50 63.7 °F /  17.6 °C 63.7 °F /  17.6 °C 30.06in /  1017.8hPa Calm     100% 0in /  0mm WeatherDisplay:10.37 W/m2 CLR
07:55 63.7 °F /  17.6 °C 63.7 °F /  17.6 °C 30.06in /  1017.8hPa Calm     100% 0in /  0mm WeatherDisplay:10.37 W/m2 CLR
08:00 63.7 °F /  17.6 °C 63.7 °F /  17.6 °C 30.06in /  1017.8hPa Calm     100% 0in /  0mm WeatherDisplay:10.37 W/m2 CLR
08:05 63.8 °F /  17.7 °C 63.8 °F /  17.7 °C 30.06in /  1017.8hPa Calm     100% 0in /  0mm WeatherDisplay:10.37 W/m2 CLR
08:10 63.9 °F /  17.7 °C 63.9 °F /  17.7 °C 30.06in /  1017.8hPa Calm     100% 0in /  0mm WeatherDisplay:10.37 W/m2 CLR
08:15 64.1 °F /  17.8 °C 63.8 °F /  17.7 °C 30.06in /  1017.8hPa Calm     99% 0in /  0mm WeatherDisplay:10.37 W/m2 CLR
08:20 64.3 °F /  17.9 °C 64 °F /  17.8 °C 30.06in /  1017.8hPa Calm     99% 0in /  0mm WeatherDisplay:10.37 W/m2 CLR
08:25 64.7 °F /  18.2 °C 64.4 °F /  18 °C 30.05in /  1017.5hPa Calm     99% 0in /  0mm WeatherDisplay:10.37 W/m2 CLR
08:30 64.9 °F /  18.3 °C 64.6 °F /  18.1 °C 30.06in /  1017.8hPa Calm     99% 0in /  0mm WeatherDisplay:10.37 W/m2 CLR
08:35 65.1 °F /  18.4 °C 64.5 °F /  18.1 °C 30.06in /  1017.8hPa Calm     98% 0in /  0mm WeatherDisplay:10.37 W/m2 CLR
08:40 65.4 °F /  18.6 °C 64.5 °F /  18.1 °C 30.06in /  1017.8hPa Calm     97% 0in /  0mm WeatherDisplay:10.37 W/m2 CLR
08:45 65.6 °F /  18.7 °C 64.7 °F /  18.2 °C 30.06in /  1017.8hPa Calm     97% 0in /  0mm WeatherDisplay:10.37 W/m2 CLR
08:50 65.9 °F /  18.8 °C 64.7 °F /  18.2 °C 30.06in /  1017.8hPa Calm     96% 0in /  0mm WeatherDisplay:10.37 W/m2 CLR
08:55 66.2 °F /  19 °C 65 °F /  18.3 °C 30.06in /  1017.8hPa Calm     96% 0in /  0mm WeatherDisplay:10.37 W/m2 CLR
09:00 66.3 °F /  19.1 °C 64.8 °F /  18.2 °C 30.06in /  1017.8hPa Calm     95% 0in /  0mm WeatherDisplay:10.37 W/m2 CLR
09:05 66.5 °F /  19.2 °C 65 °F /  18.3 °C 30.06in /  1017.8hPa Calm     95% 0in /  0mm WeatherDisplay:10.37 W/m2 CLR
09:10 66.7 °F /  19.3 °C 64.9 °F /  18.3 °C 30.06in /  1017.8hPa Calm     94% 0in /  0mm WeatherDisplay:10.37 W/m2 CLR
09:15 66.9 °F /  19.4 °C 65.1 °F /  18.4 °C 30.06in /  1017.8hPa Calm     94% 0in /  0mm WeatherDisplay:10.37 W/m2 CLR
09:20 67 °F /  19.4 °C 65.2 °F /  18.4 °C 30.06in /  1017.8hPa Calm     94% 0in /  0mm WeatherDisplay:10.37 W/m2 CLR
09:25 67.1 °F /  19.5 °C 65.3 °F /  18.5 °C 30.06in /  1017.8hPa Calm     94% 0in /  0mm WeatherDisplay:10.37 W/m2 CLR
09:30 67.3 °F /  19.6 °C 65.5 °F /  18.6 °C 30.06in /  1017.8hPa Calm     94% 0in /  0mm WeatherDisplay:10.37 W/m2 CLR
09:35 67.5 °F /  19.7 °C 65.7 °F /  18.7 °C 30.06in /  1017.8hPa Calm     94% 0in /  0mm WeatherDisplay:10.37 W/m2 CLR
09:40 67.6 °F /  19.8 °C 65.5 °F /  18.6 °C 30.06in /  1017.8hPa Calm     93% 0in /  0mm WeatherDisplay:10.37 W/m2 CLR
09:45 67.8 °F /  19.9 °C 65.4 °F /  18.6 °C 30.06in /  1017.8hPa Calm     92% 0in /  0mm WeatherDisplay:10.37 W/m2 CLR
09:50 67.9 °F /  19.9 °C 65.5 °F /  18.6 °C 30.06in /  1017.8hPa Calm     92% 0in /  0mm WeatherDisplay:10.37 W/m2 CLR
09:55 68.1 °F /  20.1 °C 65.4 °F /  18.6 °C 30.06in /  1017.8hPa Calm     91% 0in /  0mm WeatherDisplay:10.37 W/m2 CLR
10:00 68.3 °F /  20.2 °C 65.6 °F /  18.7 °C 30.06in /  1017.8hPa Calm     91% 0in /  0mm WeatherDisplay:10.37 W/m2 CLR
10:05 68.4 °F /  20.2 °C 65.7 °F /  18.7 °C 30.06in /  1017.8hPa Calm     91% 0in /  0mm WeatherDisplay:10.37 W/m2 CLR
10:10 68.6 °F /  20.3 °C 65.9 °F /  18.8 °C 30.06in /  1017.8hPa Calm     91% 0in /  0mm WeatherDisplay:10.37 W/m2 CLR
10:15 68.8 °F /  20.4 °C 65.7 °F /  18.7 °C 30.06in /  1017.8hPa Calm     90% 0in /  0mm WeatherDisplay:10.37 W/m2 CLR
10:20 68.9 °F /  20.5 °C 65.8 °F /  18.8 °C 30.06in /  1017.8hPa Calm     90% 0in /  0mm WeatherDisplay:10.37 W/m2 CLR
10:25 69.1 °F /  20.6 °C 66.4 °F /  19.1 °C 30.07in /  1018.2hPa Calm     91% 0in /  0mm WeatherDisplay:10.37 W/m2 CLR
10:30 69.2 °F /  20.7 °C 66.1 °F /  18.9 °C 30.06in /  1017.8hPa Calm     90% 0in /  0mm WeatherDisplay:10.37 W/m2 CLR
10:35 69.3 °F /  20.7 °C 66.2 °F /  19 °C 30.06in /  1017.8hPa Calm     90% 0in /  0mm WeatherDisplay:10.37 W/m2 CLR
10:40 69.5 °F /  20.8 °C 66.8 °F /  19.3 °C 30.05in /  1017.5hPa Calm     91% 0in /  0mm WeatherDisplay:10.37 W/m2 CLR
10:45 69.4 °F /  20.8 °C 66.3 °F /  19.1 °C 30.05in /  1017.5hPa Calm     90% 0in /  0mm WeatherDisplay:10.37 W/m2 CLR
10:50 69.5 °F /  20.8 °C 66.4 °F /  19.1 °C 30.05in /  1017.5hPa Calm     90% 0in /  0mm WeatherDisplay:10.37 W/m2 CLR
10:55 69.7 °F /  20.9 °C 66.3 °F /  19.1 °C 30.05in /  1017.5hPa Calm     89% 0in /  0mm WeatherDisplay:10.37 W/m2 CLR
11:00 70.2 °F /  21.2 °C 66.5 °F /  19.2 °C 30.05in /  1017.5hPa Calm     88% 0in /  0mm WeatherDisplay:10.37 W/m2 CLR
11:05 70.4 °F /  21.3 °C 66 °F /  18.9 °C 30.05in /  1017.5hPa Calm     86% 0in /  0mm WeatherDisplay:10.37 W/m2 CLR
11:10 70.7 °F /  21.5 °C 66.6 °F /  19.2 °C 30.05in /  1017.5hPa NNW 1.2mph /  1.9km/h 0.2mph /  0.3km/h 87% 0in /  0mm WeatherDisplay:10.37 W/m2 CLR
11:15 70.9 °F /  21.6 °C 66.2 °F /  19 °C 30.05in /  1017.5hPa NNW 1.2mph /  1.9km/h 0.1mph /  0.2km/h 85% 0in /  0mm WeatherDisplay:10.37 W/m2 CLR
11:20 71.3 °F /  21.8 °C 65.9 °F /  18.8 °C 30.05in /  1017.5hPa Calm     83% 0in /  0mm WeatherDisplay:10.37 W/m2 CLR
11:25 71.6 °F /  22 °C 65.8 °F /  18.8 °C 30.04in /  1017.2hPa Calm     82% 0in /  0mm WeatherDisplay:10.37 W/m2 CLR
11:30 72 °F /  22.2 °C 66.6 °F /  19.2 °C 30.04in /  1017.2hPa Calm     83% 0in /  0mm WeatherDisplay:10.37 W/m2 CLR
11:35 72.3 °F /  22.4 °C 66.1 °F /  18.9 °C 30.04in /  1017.2hPa Calm     81% 0in /  0mm WeatherDisplay:10.37 W/m2 CLR
11:40 72.6 °F /  22.6 °C 66.4 °F /  19.1 °C 30.04in /  1017.2hPa Calm     81% 0in /  0mm WeatherDisplay:10.37 W/m2 CLR
11:45 72.8 °F /  22.7 °C 66.6 °F /  19.2 °C 30.04in /  1017.2hPa Calm     81% 0in /  0mm WeatherDisplay:10.37 W/m2 CLR
11:50 73.2 °F /  22.9 °C 66.7 °F /  19.3 °C 30.04in /  1017.2hPa Calm     80% 0in /  0mm WeatherDisplay:10.37 W/m2 CLR
11:55 73.8 °F /  23.2 °C 66.9 °F /  19.4 °C 30.03in /  1016.8hPa Calm     79% 0in /  0mm WeatherDisplay:10.37 W/m2 CLR
12:00 74.3 °F /  23.5 °C 67.7 °F /  19.8 °C 30.03in /  1016.8hPa Calm     80% 0in /  0mm WeatherDisplay:10.37 W/m2 CLR
12:05 74.6 °F /  23.7 °C 65.8 °F /  18.8 °C 30.03in /  1016.8hPa Calm     74% 0in /  0mm WeatherDisplay:10.37 W/m2 CLR
12:10 74.7 °F /  23.7 °C 65.9 °F /  18.8 °C 30.03in /  1016.8hPa Calm     74% 0in /  0mm WeatherDisplay:10.37 W/m2 CLR
12:15 74.9 °F /  23.8 °C 66.8 °F /  19.3 °C 30.03in /  1016.8hPa Calm     76% 0in /  0mm WeatherDisplay:10.37 W/m2 CLR
12:20 75.2 °F /  24 °C 67.5 °F /  19.7 °C 30.03in /  1016.8hPa Calm     77% 0in /  0mm WeatherDisplay:10.37 W/m2 CLR
12:25 75.5 °F /  24.2 °C 67.4 °F /  19.7 °C 30.03in /  1016.8hPa Calm     76% 0in /  0mm WeatherDisplay:10.37 W/m2 CLR
12:30 75.7 °F /  24.3 °C 66.8 °F /  19.3 °C 30.02in /  1016.5hPa Calm     74% 0in /  0mm WeatherDisplay:10.37 W/m2 CLR
12:35 75.9 °F /  24.4 °C 67.4 °F /  19.7 °C 30.03in /  1016.8hPa NNW 1.2mph /  1.9km/h 0.2mph /  0.3km/h 75% 0in /  0mm WeatherDisplay:10.37 W/m2 CLR
12:40 76 °F /  24.4 °C 67.9 °F /  19.9 °C 30.03in /  1016.8hPa Calm     76% 0in /  0mm WeatherDisplay:10.37 W/m2 CLR
12:45 76.2 °F /  24.6 °C 66.9 °F /  19.4 °C 30.03in /  1016.8hPa Calm     73% 0in /  0mm WeatherDisplay:10.37 W/m2 CLR
12:50 76.1 °F /  24.5 °C 66.4 °F /  19.1 °C 30.03in /  1016.8hPa Calm     72% 0in /  0mm WeatherDisplay:10.37 W/m2 CLR
12:55 76.1 °F /  24.5 °C 66.4 °F /  19.1 °C 30.02in /  1016.5hPa Calm     72% 0in /  0mm WeatherDisplay:10.37 W/m2 CLR
13:00 76.1 °F /  24.5 °C 67.2 °F /  19.6 °C 30.02in /  1016.5hPa Calm     74% 0in /  0mm WeatherDisplay:10.37 W/m2 CLR
13:05 76 °F /  24.4 °C 66.7 °F /  19.3 °C 30.02in /  1016.5hPa Calm     73% 0in /  0mm WeatherDisplay:10.37 W/m2 CLR
13:10 76 °F /  24.4 °C 66.3 °F /  19.1 °C 30.02in /  1016.5hPa Calm     72% 0in /  0mm WeatherDisplay:10.37 W/m2 CLR
13:15 76 °F /  24.4 °C 66.3 °F /  19.1 °C 30.02in /  1016.5hPa Calm     72% 0in /  0mm WeatherDisplay:10.37 W/m2 CLR
13:20 76.2 °F /  24.6 °C 66.9 °F /  19.4 °C 30.02in /  1016.5hPa Calm     73% 0in /  0mm WeatherDisplay:10.37 W/m2 CLR
13:25 76.3 °F /  24.6 °C 67 °F /  19.4 °C 30.02in /  1016.5hPa Calm     73% 0in /  0mm WeatherDisplay:10.37 W/m2 CLR
13:30 76.3 °F /  24.6 °C 67 °F /  19.4 °C 30.01in /  1016.1hPa Calm     73% 0in /  0mm WeatherDisplay:10.37 W/m2 CLR
13:35 76.2 °F /  24.6 °C 67.3 °F /  19.6 °C 30.01in /  1016.1hPa Calm     74% 0in /  0mm WeatherDisplay:10.37 W/m2 CLR
13:40 76.2 °F /  24.6 °C 67.3 °F /  19.6 °C 30.01in /  1016.1hPa Calm     74% 0in /  0mm WeatherDisplay:10.37 W/m2 CLR
13:45 76.3 °F /  24.6 °C 67 °F /  19.4 °C 30.01in /  1016.1hPa Calm     73% 0in /  0mm WeatherDisplay:10.37 W/m2 CLR
13:50 76.4 °F /  24.7 °C 67.5 °F /  19.7 °C 30.01in /  1016.1hPa Calm     74% 0in /  0mm WeatherDisplay:10.37 W/m2 CLR
13:55 76.5 °F /  24.7 °C 68 °F /  20 °C 30.01in /  1016.1hPa NNW 3.5mph /  5.6km/h 0.2mph /  0.3km/h 75% 0in /  0mm WeatherDisplay:10.37 W/m2 CLR
14:00 76.6 °F /  24.8 °C 67.3 °F /  19.6 °C 30.01in /  1016.1hPa Calm     73% 0in /  0mm WeatherDisplay:10.37 W/m2 CLR
14:05 76.5 °F /  24.7 °C 68.4 °F /  20.2 °C 30.01in /  1016.1hPa Calm     76% 0in /  0mm WeatherDisplay:10.37 W/m2 CLR
14:10 76.5 °F /  24.7 °C 67.6 °F /  19.8 °C 30.01in /  1016.1hPa Calm     74% 0in /  0mm WeatherDisplay:10.37 W/m2 CLR
14:15 76.6 °F /  24.8 °C 67.7 °F /  19.8 °C 30.01in /  1016.1hPa Calm     74% 0in /  0mm WeatherDisplay:10.37 W/m2 CLR
14:20 76.8 °F /  24.9 °C 67.9 °F /  19.9 °C 30.01in /  1016.1hPa Calm     74% 0in /  0mm WeatherDisplay:10.37 W/m2 CLR
14:25 77.1 °F /  25.1 °C 68.9 °F /  20.5 °C 30.01in /  1016.1hPa Calm     76% 0in /  0mm WeatherDisplay:10.37 W/m2 CLR
14:30 77.1 °F /  25.1 °C 68.2 °F /  20.1 °C 30.00in /  1015.8hPa Calm     74% 0in /  0mm WeatherDisplay:10.37 W/m2 CLR
14:35 77.1 °F /  25.1 °C 67.8 °F /  19.9 °C 30.00in /  1015.8hPa Calm     73% 0in /  0mm WeatherDisplay:10.37 W/m2 CLR
14:40 77.3 °F /  25.2 °C 69.1 °F /  20.6 °C 30.00in /  1015.8hPa Calm     76% 0in /  0mm WeatherDisplay:10.37 W/m2 CLR
14:45 77.2 °F /  25.1 °C 68.3 °F /  20.2 °C 30.00in /  1015.8hPa Calm     74% 0in /  0mm WeatherDisplay:10.37 W/m2 CLR
14:50 77.1 °F /  25.1 °C 69.3 °F /  20.7 °C 30.00in /  1015.8hPa Calm     77% 0in /  0mm WeatherDisplay:10.37 W/m2 CLR
14:55 77 °F /  25 °C 68.1 °F /  20.1 °C 30.00in /  1015.8hPa Calm     74% 0in /  0mm WeatherDisplay:10.37 W/m2 CLR
15:00 77.1 °F /  25.1 °C 69.3 °F /  20.7 °C 30.00in /  1015.8hPa Calm     77% 0in /  0mm WeatherDisplay:10.37 W/m2 CLR
15:05 77.2 °F /  25.1 °C 68.7 °F /  20.4 °C 30.00in /  1015.8hPa Calm     75% 0in /  0mm WeatherDisplay:10.37 W/m2 CLR
15:10 77.2 °F /  25.1 °C 69.4 °F /  20.8 °C 30.00in /  1015.8hPa Calm     77% 0in /  0mm WeatherDisplay:10.37 W/m2 CLR
15:15 77.1 °F /  25.1 °C 68.2 °F /  20.1 °C 29.99in /  1015.5hPa Calm     74% 0in /  0mm WeatherDisplay:10.37 W/m2 CLR
15:20 77 °F /  25 °C 68.1 °F /  20.1 °C 29.99in /  1015.5hPa Calm     74% 0in /  0mm WeatherDisplay:10.37 W/m2 CLR
15:25 77.1 °F /  25.1 °C 68.9 °F /  20.5 °C 29.99in /  1015.5hPa Calm     76% 0in /  0mm WeatherDisplay:10.37 W/m2 CLR
15:30 77 °F /  25 °C 68.1 °F /  20.1 °C 29.99in /  1015.5hPa Calm     74% 0in /  0mm WeatherDisplay:10.37 W/m2 CLR
15:35 76.9 °F /  24.9 °C 68.4 °F /  20.2 °C 29.99in /  1015.5hPa Calm   12mph /  19.3km/h 75% 0in /  0mm WeatherDisplay:10.37 W/m2 CLR
15:40 76.9 °F /  24.9 °C 68.4 °F /  20.2 °C 29.98in /  1015.1hPa Calm     75% 0in /  0mm WeatherDisplay:10.37 W/m2 CLR
15:45 76.8 °F /  24.9 °C 69.4 °F /  20.8 °C 29.99in /  1015.5hPa Calm     78% 0in /  0mm WeatherDisplay:10.37 W/m2 CLR
15:50 76.9 °F /  24.9 °C 69.5 °F /  20.8 °C 29.98in /  1015.1hPa Calm     78% 0in /  0mm WeatherDisplay:10.37 W/m2 CLR
15:55 76.9 °F /  24.9 °C 68.4 °F /  20.2 °C 29.98in /  1015.1hPa SW 4mph /  6.4km/h 0.1mph /  0.2km/h 75% 0in /  0mm WeatherDisplay:10.37 W/m2 CLR
16:00 77.1 °F /  25.1 °C 68.2 °F /  20.1 °C 29.98in /  1015.1hPa Calm     74% 0in /  0mm WeatherDisplay:10.37 W/m2 CLR
16:05 77.3 °F /  25.2 °C 68.8 °F /  20.4 °C 29.98in /  1015.1hPa Calm     75% 0in /  0mm WeatherDisplay:10.37 W/m2 CLR
16:10 77.6 °F /  25.3 °C 69 °F /  20.6 °C 29.98in /  1015.1hPa Calm     75% 0in /  0mm WeatherDisplay:10.37 W/m2 CLR
16:15 77.5 °F /  25.3 °C 68.2 °F /  20.1 °C 29.98in /  1015.1hPa Calm     73% 0in /  0mm WeatherDisplay:10.37 W/m2 CLR
16:20 77.5 °F /  25.3 °C 68.9 °F /  20.5 °C 29.98in /  1015.1hPa Calm     75% 0in /  0mm WeatherDisplay:10.37 W/m2 CLR
16:25 77.5 °F /  25.3 °C 68.2 °F /  20.1 °C 29.98in /  1015.1hPa Calm     73% 0in /  0mm WeatherDisplay:10.37 W/m2 CLR
16:30 77.5 °F /  25.3 °C 68.6 °F /  20.3 °C 29.98in /  1015.1hPa Calm     74% 0in /  0mm WeatherDisplay:10.37 W/m2 CLR
16:35 77.6 °F /  25.3 °C 69 °F /  20.6 °C 29.98in /  1015.1hPa Calm     75% 0in /  0mm WeatherDisplay:10.37 W/m2 CLR
16:40 77.5 °F /  25.3 °C 68.6 °F /  20.3 °C 29.98in /  1015.1hPa Calm     74% 0in /  0mm WeatherDisplay:10.37 W/m2 CLR
16:45 77.5 °F /  25.3 °C 69.7 °F /  20.9 °C 29.98in /  1015.1hPa Calm     77% 0in /  0mm WeatherDisplay:10.37 W/m2 CLR
16:50 77.2 °F /  25.1 °C 68.7 °F /  20.4 °C 29.98in /  1015.1hPa Calm     75% 0in /  0mm WeatherDisplay:10.37 W/m2 CLR
16:55 77.1 °F /  25.1 °C 68.9 °F /  20.5 °C 29.98in /  1015.1hPa Calm     76% 0in /  0mm WeatherDisplay:10.37 W/m2 CLR
17:00 76.9 °F /  24.9 °C 69.1 °F /  20.6 °C 29.98in /  1015.1hPa Calm     77% 0in /  0mm WeatherDisplay:10.37 W/m2 CLR
17:05 76.8 °F /  24.9 °C 69 °F /  20.6 °C 29.98in /  1015.1hPa Calm     77% 0in /  0mm WeatherDisplay:10.37 W/m2 CLR
17:10 76.7 °F /  24.8 °C 68.9 °F /  20.5 °C 29.98in /  1015.1hPa Calm     77% 0in /  0mm WeatherDisplay:10.37 W/m2 CLR
17:15 76.7 °F /  24.8 °C 68.6 °F /  20.3 °C 29.98in /  1015.1hPa Calm     76% 0in /  0mm WeatherDisplay:10.37 W/m2 CLR
17:20 76.7 °F /  24.8 °C 68.9 °F /  20.5 °C 29.98in /  1015.1hPa Calm     77% 0in /  0mm WeatherDisplay:10.37 W/m2 CLR
17:25 76.7 °F /  24.8 °C 69.3 °F /  20.7 °C 29.98in /  1015.1hPa Calm     78% 0in /  0mm WeatherDisplay:10.37 W/m2 CLR
17:30 76.7 °F /  24.8 °C 68.9 °F /  20.5 °C 29.98in /  1015.1hPa Calm     77% 0in /  0mm WeatherDisplay:10.37 W/m2 CLR
17:35 76.6 °F /  24.8 °C 69.2 °F /  20.7 °C 29.98in /  1015.1hPa Calm     78% 0in /  0mm WeatherDisplay:10.37 W/m2 CLR
17:40 76.4 °F /  24.7 °C 69.8 °F /  21 °C 29.98in /  1015.1hPa Calm     80% 0in /  0mm WeatherDisplay:10.37 W/m2 CLR
17:45 76.2 °F /  24.6 °C 69.9 °F /  21.1 °C 29.98in /  1015.1hPa Calm     81% 0in /  0mm WeatherDisplay:10.37 W/m2 CLR
17:50 76 °F /  24.4 °C 70.5 °F /  21.4 °C 29.98in /  1015.1hPa Calm     83% 0in /  0mm WeatherDisplay:10.37 W/m2 CLR
17:55 75.7 °F /  24.3 °C 70.2 °F /  21.2 °C 29.98in /  1015.1hPa Calm     83% 0in /  0mm WeatherDisplay:10.37 W/m2 CLR
18:00 75.5 °F /  24.2 °C 70.3 °F /  21.3 °C 29.98in /  1015.1hPa Calm     84% 0in /  0mm WeatherDisplay:10.37 W/m2 CLR
18:05 75.3 °F /  24.1 °C 69.8 °F /  21 °C 29.99in /  1015.5hPa Calm     83% 0in /  0mm WeatherDisplay:10.37 W/m2 CLR
18:10 75.1 °F /  23.9 °C 69.9 °F /  21.1 °C 29.99in /  1015.5hPa Calm     84% 0in /  0mm WeatherDisplay:10.37 W/m2 CLR
18:15 74.9 °F /  23.8 °C 69.4 °F /  20.8 °C 29.99in /  1015.5hPa Calm     83% 0in /  0mm WeatherDisplay:10.37 W/m2 CLR
18:20 74.7 °F /  23.7 °C 69.2 °F /  20.7 °C 29.98in /  1015.1hPa Calm     83% 0in /  0mm WeatherDisplay:10.37 W/m2 CLR
18:25 74.6 °F /  23.7 °C 69.4 °F /  20.8 °C 29.99in /  1015.5hPa Calm     84% 0in /  0mm WeatherDisplay:10.37 W/m2 CLR
18:30 74.4 °F /  23.6 °C 68.9 °F /  20.5 °C 29.98in /  1015.1hPa Calm     83% 0in /  0mm WeatherDisplay:10.37 W/m2 CLR
18:35 74.2 °F /  23.4 °C 69.1 °F /  20.6 °C 29.98in /  1015.1hPa Calm     84% 0in /  0mm WeatherDisplay:10.37 W/m2 CLR
18:40 74 °F /  23.3 °C 69.2 °F /  20.7 °C 29.98in /  1015.1hPa Calm     85% 0in /  0mm WeatherDisplay:10.37 W/m2 CLR
18:45 73.7 °F /  23.2 °C 68.9 °F /  20.5 °C 29.99in /  1015.5hPa Calm     85% 0in /  0mm WeatherDisplay:10.37 W/m2 CLR
18:50 73.5 °F /  23.1 °C 68.7 °F /  20.4 °C 29.99in /  1015.5hPa Calm     85% 0in /  0mm WeatherDisplay:10.37 W/m2 CLR
18:55 73.3 °F /  22.9 °C 68.9 °F /  20.5 °C 29.99in /  1015.5hPa Calm     86% 0in /  0mm WeatherDisplay:10.37 W/m2 CLR
19:00 73.1 °F /  22.8 °C 68.7 °F /  20.4 °C 29.99in /  1015.5hPa Calm     86% 0in /  0mm WeatherDisplay:10.37 W/m2 CLR
19:05 72.7 °F /  22.6 °C 68.3 °F /  20.2 °C 29.99in /  1015.5hPa Calm     86% 0in /  0mm WeatherDisplay:10.37 W/m2 CLR
19:10 72.3 °F /  22.4 °C 68.2 °F /  20.1 °C 30.00in /  1015.8hPa Calm     87% 0in /  0mm WeatherDisplay:10.37 W/m2 CLR
19:15 71.9 °F /  22.2 °C 68.2 °F /  20.1 °C 29.99in /  1015.5hPa Calm     88% 0in /  0mm WeatherDisplay:10.37 W/m2 CLR
19:20 71.5 °F /  21.9 °C 67.8 °F /  19.9 °C 29.99in /  1015.5hPa Calm     88% 0in /  0mm WeatherDisplay:10.37 W/m2 CLR
19:25 71.2 °F /  21.8 °C 67.8 °F /  19.9 °C 29.99in /  1015.5hPa Calm     89% 0in /  0mm WeatherDisplay:10.37 W/m2 CLR
19:30 70.7 °F /  21.5 °C 67.3 °F /  19.6 °C 29.99in /  1015.5hPa Calm     89% 0in /  0mm WeatherDisplay:10.37 W/m2 CLR
19:35 70.4 °F /  21.3 °C 67.3 °F /  19.6 °C 30.00in /  1015.8hPa Calm     90% 0in /  0mm WeatherDisplay:10.37 W/m2 CLR
19:40 70.2 °F /  21.2 °C 67.1 °F /  19.5 °C 30.00in /  1015.8hPa Calm     90% 0in /  0mm WeatherDisplay:10.37 W/m2 CLR
19:45 69.8 °F /  21 °C 67.1 °F /  19.5 °C 30.00in /  1015.8hPa Calm     91% 0in /  0mm WeatherDisplay:10.37 W/m2 CLR
19:50 69.5 °F /  20.8 °C 66.8 °F /  19.3 °C 30.00in /  1015.8hPa Calm     91% 0in /  0mm WeatherDisplay:10.37 W/m2 CLR
19:55 69.3 °F /  20.7 °C 66.9 °F /  19.4 °C 30.00in /  1015.8hPa Calm     92% 0in /  0mm WeatherDisplay:10.37 W/m2 CLR
20:00 69 °F /  20.6 °C 66.6 °F /  19.2 °C 30.00in /  1015.8hPa Calm     92% 0in /  0mm WeatherDisplay:10.37 W/m2 CLR
20:05 68.8 °F /  20.4 °C 66.7 °F /  19.3 °C 30.00in /  1015.8hPa Calm     93% 0in /  0mm WeatherDisplay:10.37 W/m2 CLR
20:10 68.6 °F /  20.3 °C 66.5 °F /  19.2 °C 30.01in /  1016.1hPa Calm     93% 0in /  0mm WeatherDisplay:10.37 W/m2 CLR
20:15 68.3 °F /  20.2 °C 66.2 °F /  19 °C 30.01in /  1016.1hPa Calm     93% 0in /  0mm WeatherDisplay:10.37 W/m2 CLR
20:20 68.1 °F /  20.1 °C 66 °F /  18.9 °C 30.01in /  1016.1hPa Calm     93% 0in /  0mm WeatherDisplay:10.37 W/m2 CLR
20:25 67.9 °F /  19.9 °C 66.1 °F /  18.9 °C 30.01in /  1016.1hPa Calm     94% 0in /  0mm WeatherDisplay:10.37 W/m2 CLR
20:30 67.7 °F /  19.8 °C 65.9 °F /  18.8 °C 30.01in /  1016.1hPa Calm     94% 0in /  0mm WeatherDisplay:10.37 W/m2 CLR
20:35 67.5 °F /  19.7 °C 65.7 °F /  18.7 °C 30.01in /  1016.1hPa Calm     94% 0in /  0mm WeatherDisplay:10.37 W/m2 CLR
20:40 67.4 °F /  19.7 °C 65.9 °F /  18.8 °C 30.01in /  1016.1hPa Calm     95% 0in /  0mm WeatherDisplay:10.37 W/m2 CLR
20:45 67.3 °F /  19.6 °C 65.8 °F /  18.8 °C 30.01in /  1016.1hPa Calm     95% 0in /  0mm WeatherDisplay:10.37 W/m2 CLR
20:50 67.2 °F /  19.6 °C 65.7 °F /  18.7 °C 30.01in /  1016.1hPa Calm     95% 0in /  0mm WeatherDisplay:10.37 W/m2 CLR
20:55 67 °F /  19.4 °C 65.5 °F /  18.6 °C 30.02in /  1016.5hPa Calm     95% 0in /  0mm WeatherDisplay:10.37 W/m2 CLR
21:00 66.8 °F /  19.3 °C 65.6 °F /  18.7 °C 30.02in /  1016.5hPa Calm     96% 0in /  0mm WeatherDisplay:10.37 W/m2 CLR
21:05 66.7 °F /  19.3 °C 65.5 °F /  18.6 °C 30.02in /  1016.5hPa Calm     96% 0in /  0mm WeatherDisplay:10.37 W/m2 CLR
21:10 66.6 °F /  19.2 °C 65.4 °F /  18.6 °C 30.02in /  1016.5hPa Calm     96% 0in /  0mm WeatherDisplay:10.37 W/m2 CLR
21:15 66.5 °F /  19.2 °C 65.3 °F /  18.5 °C 30.03in /  1016.8hPa Calm     96% 0in /  0mm WeatherDisplay:10.37 W/m2 CLR
21:20 66.3 °F /  19.1 °C 65.1 °F /  18.4 °C 30.02in /  1016.5hPa Calm     96% 0in /  0mm WeatherDisplay:10.37 W/m2 CLR
21:25 66.1 °F /  18.9 °C 64.9 °F /  18.3 °C 30.02in /  1016.5hPa Calm     96% 0in /  0mm WeatherDisplay:10.37 W/m2 CLR
21:30 66 °F /  18.9 °C 64.8 °F /  18.2 °C 30.03in /  1016.8hPa Calm     96% 0in /  0mm WeatherDisplay:10.37 W/m2 CLR
21:35 65.9 °F /  18.8 °C 65 °F /  18.3 °C 30.03in /  1016.8hPa Calm     97% 0in /  0mm WeatherDisplay:10.37 W/m2 CLR
21:40 65.8 °F /  18.8 °C 64.9 °F /  18.3 °C 30.03in /  1016.8hPa Calm     97% 0in /  0mm WeatherDisplay:10.37 W/m2 CLR
21:45 65.7 °F /  18.7 °C 64.8 °F /  18.2 °C 30.03in /  1016.8hPa Calm     97% 0in /  0mm WeatherDisplay:10.37 W/m2 CLR
21:50 65.6 °F /  18.7 °C 64.7 °F /  18.2 °C 30.03in /  1016.8hPa Calm     97% 0in /  0mm WeatherDisplay:10.37 W/m2 CLR
21:55 65.5 °F /  18.6 °C 64.6 °F /  18.1 °C 30.03in /  1016.8hPa Calm     97% 0in /  0mm WeatherDisplay:10.37 W/m2 CLR
22:00 65.4 °F /  18.6 °C 64.5 °F /  18.1 °C 30.03in /  1016.8hPa Calm     97% 0in /  0mm WeatherDisplay:10.37 W/m2 CLR
22:05 65.4 °F /  18.6 °C 64.5 °F /  18.1 °C 30.03in /  1016.8hPa Calm     97% 0in /  0mm WeatherDisplay:10.37 W/m2 CLR
22:10 65.3 °F /  18.5 °C 64.4 °F /  18 °C 30.03in /  1016.8hPa Calm     97% 0in /  0mm WeatherDisplay:10.37 W/m2 CLR
22:15 65.2 °F /  18.4 °C 64.3 °F /  17.9 °C 30.03in /  1016.8hPa Calm     97% 0in /  0mm WeatherDisplay:10.37 W/m2 CLR
22:20 65.1 °F /  18.4 °C 64.2 °F /  17.9 °C 30.03in /  1016.8hPa Calm     97% 0in /  0mm WeatherDisplay:10.37 W/m2 CLR
22:25 64.9 °F /  18.3 °C 64 °F /  17.8 °C 30.03in /  1016.8hPa Calm     97% 0in /  0mm WeatherDisplay:10.37 W/m2 CLR
22:30 64.8 °F /  18.2 °C 64.2 °F /  17.9 °C 30.03in /  1016.8hPa Calm     98% 0in /  0mm WeatherDisplay:10.37 W/m2 CLR
22:35 64.8 °F /  18.2 °C 64.2 °F /  17.9 °C 30.04in /  1017.2hPa Calm     98% 0in /  0mm WeatherDisplay:10.37 W/m2 CLR
22:40 64.8 °F /  18.2 °C 64.2 °F /  17.9 °C 30.04in /  1017.2hPa Calm     98% 0in /  0mm WeatherDisplay:10.37 W/m2 CLR
22:45 64.7 °F /  18.2 °C 64.1 °F /  17.8 °C 30.04in /  1017.2hPa Calm     98% 0in /  0mm WeatherDisplay:10.37 W/m2 CLR
22:50 64.6 °F /  18.1 °C 64 °F /  17.8 °C 30.05in /  1017.5hPa Calm     98% 0in /  0mm WeatherDisplay:10.37 W/m2 CLR
22:55 64.5 °F /  18.1 °C 63.9 °F /  17.7 °C 30.05in /  1017.5hPa Calm     98% 0in /  0mm WeatherDisplay:10.37 W/m2 CLR
23:00 64.4 °F /  18 °C 63.8 °F /  17.7 °C 30.05in /  1017.5hPa Calm     98% 0in /  0mm WeatherDisplay:10.37 W/m2 CLR
23:05 64.4 °F /  18 °C 63.8 °F /  17.7 °C 30.05in /  1017.5hPa Calm     98% 0in /  0mm WeatherDisplay:10.37 W/m2 CLR
23:10 64.3 °F /  17.9 °C 63.7 °F /  17.6 °C 30.05in /  1017.5hPa Calm     98% 0in /  0mm WeatherDisplay:10.37 W/m2 CLR
23:15 64.1 °F /  17.8 °C 63.5 °F /  17.5 °C 30.05in /  1017.5hPa Calm     98% 0in /  0mm WeatherDisplay:10.37 W/m2 CLR
23:20 64.1 °F /  17.8 °C 63.5 °F /  17.5 °C 30.05in /  1017.5hPa Calm     98% 0in /  0mm WeatherDisplay:10.37 W/m2 CLR
23:25 64 °F /  17.8 °C 63.4 °F /  17.4 °C 30.05in /  1017.5hPa Calm     98% 0in /  0mm WeatherDisplay:10.37 W/m2 CLR
23:30 63.9 °F /  17.7 °C 63.3 °F /  17.4 °C 30.05in /  1017.5hPa Calm     98% 0in /  0mm WeatherDisplay:10.37 W/m2 CLR
23:35 63.9 °F /  17.7 °C 63.3 °F /  17.4 °C 30.05in /  1017.5hPa Calm     98% 0in /  0mm WeatherDisplay:10.37 W/m2 CLR
23:40 63.8 °F /  17.7 °C 63.2 °F /  17.3 °C 30.05in /  1017.5hPa Calm     98% 0in /  0mm WeatherDisplay:10.37 W/m2 CLR
23:45 63.8 °F /  17.7 °C 63.2 °F /  17.3 °C 30.05in /  1017.5hPa Calm     98% 0in /  0mm WeatherDisplay:10.37 W/m2 CLR
23:50 63.9 °F /  17.7 °C 63.6 °F /  17.6 °C 30.05in /  1017.5hPa Calm     99% 0in /  0mm WeatherDisplay:10.37 W/m2 CLR
23:55 63.9 °F /  17.7 °C 63.6 °F /  17.6 °C 30.05in /  1017.5hPa Calm     99% 0in /  0mm WeatherDisplay:10.37 W/m2 CLR
Lake Wynonah, (Auburn) PA USA